sensor_id;sensor_type;location;lat;lon;timestamp;P1;durP1;ratioP1;P2;durP2;ratioP2
37791;SDS011;29527;55.766;37.570;2023-07-31T00:00:05;11.65;;;4.72;;
37791;SDS011;29527;55.766;37.570;2023-07-31T00:02:34;6.40;;;4.45;;
37791;SDS011;29527;55.766;37.570;2023-07-31T00:05:00;13.27;;;5.32;;
37791;SDS011;29527;55.766;37.570;2023-07-31T00:07:29;14.73;;;5.85;;
37791;SDS011;29527;55.766;37.570;2023-07-31T00:09:54;9.65;;;6.55;;
37791;SDS011;29527;55.766;37.570;2023-07-31T00:12:22;17.15;;;5.40;;
37791;SDS011;29527;55.766;37.570;2023-07-31T00:14:48;9.68;;;4.80;;
37791;SDS011;29527;55.766;37.570;2023-07-31T00:17:13;15.30;;;6.10;;
37791;SDS011;29527;55.766;37.570;2023-07-31T00:19:39;10.45;;;4.63;;
37791;SDS011;29527;55.766;37.570;2023-07-31T00:22:05;10.57;;;8.77;;
37791;SDS011;29527;55.766;37.570;2023-07-31T00:24:30;15.55;;;9.60;;
37791;SDS011;29527;55.766;37.570;2023-07-31T00:26:56;13.93;;;6.65;;
37791;SDS011;29527;55.766;37.570;2023-07-31T00:29:21;12.95;;;5.97;;
37791;SDS011;29527;55.766;37.570;2023-07-31T00:31:47;12.55;;;5.55;;
37791;SDS011;29527;55.766;37.570;2023-07-31T00:34:12;16.60;;;7.03;;
37791;SDS011;29527;55.766;37.570;2023-07-31T00:36:38;14.52;;;6.60;;
37791;SDS011;29527;55.766;37.570;2023-07-31T00:39:03;14.95;;;8.25;;
37791;SDS011;29527;55.766;37.570;2023-07-31T00:41:30;12.77;;;5.00;;
37791;SDS011;29527;55.766;37.570;2023-07-31T00:43:55;14.38;;;5.82;;
37791;SDS011;29527;55.766;37.570;2023-07-31T00:46:21;25.67;;;6.25;;
37791;SDS011;29527;55.766;37.570;2023-07-31T00:48:46;26.17;;;6.22;;
37791;SDS011;29527;55.766;37.570;2023-07-31T00:51:12;28.10;;;5.95;;
37791;SDS011;29527;55.766;37.570;2023-07-31T00:53:39;28.92;;;6.38;;
37791;SDS011;29527;55.766;37.570;2023-07-31T00:56:05;19.85;;;5.90;;
37791;SDS011;29527;55.766;37.570;2023-07-31T00:58:31;28.85;;;6.22;;
37791;SDS011;29527;55.766;37.570;2023-07-31T01:00:57;25.00;;;5.38;;
37791;SDS011;29527;55.766;37.570;2023-07-31T01:03:22;29.52;;;5.90;;
37791;SDS011;29527;55.766;37.570;2023-07-31T01:05:58;24.05;;;5.95;;
37791;SDS011;29527;55.766;37.570;2023-07-31T01:08:42;24.15;;;5.32;;
37791;SDS011;29527;55.766;37.570;2023-07-31T01:11:16;17.48;;;5.22;;
37791;SDS011;29527;55.766;37.570;2023-07-31T01:13:44;16.42;;;7.10;;
37791;SDS011;29527;55.766;37.570;2023-07-31T01:16:11;17.55;;;5.43;;
37791;SDS011;29527;55.766;37.570;2023-07-31T01:18:37;20.65;;;5.05;;
37791;SDS011;29527;55.766;37.570;2023-07-31T01:21:18;20.95;;;5.70;;
37791;SDS011;29527;55.766;37.570;2023-07-31T01:24:10;17.88;;;5.25;;
37791;SDS011;29527;55.766;37.570;2023-07-31T01:26:36;17.48;;;5.13;;
37791;SDS011;29527;55.766;37.570;2023-07-31T01:29:10;18.95;;;4.90;;
37791;SDS011;29527;55.766;37.570;2023-07-31T01:31:43;19.50;;;5.10;;
37791;SDS011;29527;55.766;37.570;2023-07-31T01:34:13;12.25;;;4.88;;
37791;SDS011;29527;55.766;37.570;2023-07-31T01:36:41;20.27;;;5.20;;
37791;SDS011;29527;55.766;37.570;2023-07-31T01:39:07;20.23;;;5.53;;
37791;SDS011;29527;55.766;37.570;2023-07-31T01:41:32;17.67;;;5.53;;
37791;SDS011;29527;55.766;37.570;2023-07-31T01:43:58;16.98;;;4.88;;
37791;SDS011;29527;55.766;37.570;2023-07-31T01:46:23;11.95;;;4.45;;
37791;SDS011;29527;55.766;37.570;2023-07-31T01:48:49;15.70;;;5.25;;
37791;SDS011;29527;55.766;37.570;2023-07-31T01:51:14;19.55;;;4.90;;
37791;SDS011;29527;55.766;37.570;2023-07-31T01:53:39;21.30;;;4.18;;
37791;SDS011;29527;55.766;37.570;2023-07-31T01:56:05;19.92;;;4.70;;
37791;SDS011;29527;55.766;37.570;2023-07-31T01:58:31;9.85;;;4.03;;
37791;SDS011;29527;55.766;37.570;2023-07-31T02:00:56;13.75;;;4.85;;
37791;SDS011;29527;55.766;37.570;2023-07-31T02:03:22;13.98;;;4.50;;
37791;SDS011;29527;55.766;37.570;2023-07-31T02:05:48;13.30;;;4.72;;
37791;SDS011;29527;55.766;37.570;2023-07-31T02:08:15;18.15;;;4.65;;
37791;SDS011;29527;55.766;37.570;2023-07-31T02:10:41;17.50;;;4.47;;
37791;SDS011;29527;55.766;37.570;2023-07-31T02:13:07;13.43;;;3.95;;
37791;SDS011;29527;55.766;37.570;2023-07-31T02:15:33;10.70;;;4.40;;
37791;SDS011;29527;55.766;37.570;2023-07-31T02:18:00;9.35;;;3.80;;
37791;SDS011;29527;55.766;37.570;2023-07-31T02:20:25;9.27;;;3.97;;
37791;SDS011;29527;55.766;37.570;2023-07-31T02:22:51;13.55;;;4.07;;
37791;SDS011;29527;55.766;37.570;2023-07-31T02:25:16;12.35;;;4.30;;
37791;SDS011;29527;55.766;37.570;2023-07-31T02:27:42;15.18;;;4.47;;
37791;SDS011;29527;55.766;37.570;2023-07-31T02:30:07;10.02;;;4.03;;
37791;SDS011;29527;55.766;37.570;2023-07-31T02:32:34;10.25;;;4.35;;
37791;SDS011;29527;55.766;37.570;2023-07-31T02:34:59;11.32;;;4.18;;
37791;SDS011;29527;55.766;37.570;2023-07-31T02:37:25;13.63;;;4.15;;
37791;SDS011;29527;55.766;37.570;2023-07-31T02:39:50;11.32;;;4.40;;
37791;SDS011;29527;55.766;37.570;2023-07-31T02:42:16;14.70;;;4.82;;
37791;SDS011;29527;55.766;37.570;2023-07-31T02:44:41;12.60;;;4.15;;
37791;SDS011;29527;55.766;37.570;2023-07-31T02:47:07;10.43;;;3.97;;
37791;SDS011;29527;55.766;37.570;2023-07-31T02:49:33;7.82;;;4.30;;
37791;SDS011;29527;55.766;37.570;2023-07-31T02:51:58;9.27;;;4.10;;
37791;SDS011;29527;55.766;37.570;2023-07-31T02:54:24;18.92;;;4.55;;
37791;SDS011;29527;55.766;37.570;2023-07-31T02:56:49;10.05;;;4.20;;
37791;SDS011;29527;55.766;37.570;2023-07-31T02:59:15;10.32;;;4.32;;
37791;SDS011;29527;55.766;37.570;2023-07-31T03:01:40;9.73;;;4.22;;
37791;SDS011;29527;55.766;37.570;2023-07-31T03:04:06;12.43;;;4.15;;
37791;SDS011;29527;55.766;37.570;2023-07-31T03:06:32;8.68;;;4.57;;
37791;SDS011;29527;55.766;37.570;2023-07-31T03:08:57;12.13;;;4.38;;
37791;SDS011;29527;55.766;37.570;2023-07-31T03:11:23;8.10;;;4.07;;
37791;SDS011;29527;55.766;37.570;2023-07-31T03:13:49;7.43;;;4.88;;
37791;SDS011;29527;55.766;37.570;2023-07-31T03:16:14;7.80;;;4.78;;
37791;SDS011;29527;55.766;37.570;2023-07-31T03:18:40;8.35;;;4.45;;
37791;SDS011;29527;55.766;37.570;2023-07-31T03:21:06;8.73;;;4.85;;
37791;SDS011;29527;55.766;37.570;2023-07-31T03:23:31;12.38;;;5.85;;
37791;SDS011;29527;55.766;37.570;2023-07-31T03:26:00;8.57;;;4.00;;
37791;SDS011;29527;55.766;37.570;2023-07-31T03:28:29;6.55;;;3.90;;
37791;SDS011;29527;55.766;37.570;2023-07-31T03:30:55;8.40;;;5.32;;
37791;SDS011;29527;55.766;37.570;2023-07-31T03:33:21;6.18;;;4.47;;
37791;SDS011;29527;55.766;37.570;2023-07-31T03:35:46;7.75;;;4.03;;
37791;SDS011;29527;55.766;37.570;2023-07-31T03:38:12;8.50;;;4.10;;
37791;SDS011;29527;55.766;37.570;2023-07-31T03:40:38;8.13;;;4.13;;
37791;SDS011;29527;55.766;37.570;2023-07-31T03:43:03;9.10;;;4.28;;
37791;SDS011;29527;55.766;37.570;2023-07-31T03:45:29;11.85;;;4.13;;
37791;SDS011;29527;55.766;37.570;2023-07-31T03:47:54;9.80;;;4.05;;
37791;SDS011;29527;55.766;37.570;2023-07-31T03:50:20;7.88;;;3.67;;
37791;SDS011;29527;55.766;37.570;2023-07-31T03:52:46;6.97;;;3.60;;
37791;SDS011;29527;55.766;37.570;2023-07-31T03:55:12;6.88;;;3.70;;
37791;SDS011;29527;55.766;37.570;2023-07-31T03:57:38;8.95;;;3.58;;
37791;SDS011;29527;55.766;37.570;2023-07-31T04:00:03;4.82;;;3.38;;
37791;SDS011;29527;55.766;37.570;2023-07-31T04:02:30;6.40;;;3.72;;
37791;SDS011;29527;55.766;37.570;2023-07-31T04:04:56;8.25;;;3.67;;
37791;SDS011;29527;55.766;37.570;2023-07-31T04:07:21;5.47;;;3.72;;
37791;SDS011;29527;55.766;37.570;2023-07-31T04:09:47;9.90;;;3.75;;
37791;SDS011;29527;55.766;37.570;2023-07-31T04:12:12;6.68;;;3.58;;
37791;SDS011;29527;55.766;37.570;2023-07-31T04:14:38;7.93;;;3.60;;
37791;SDS011;29527;55.766;37.570;2023-07-31T04:17:03;6.13;;;3.42;;
37791;SDS011;29527;55.766;37.570;2023-07-31T04:19:29;11.77;;;4.20;;
37791;SDS011;29527;55.766;37.570;2023-07-31T04:21:54;9.75;;;3.08;;
37791;SDS011;29527;55.766;37.570;2023-07-31T04:24:20;5.28;;;3.10;;
37791;SDS011;29527;55.766;37.570;2023-07-31T04:26:50;10.32;;;3.67;;
37791;SDS011;29527;55.766;37.570;2023-07-31T04:29:15;7.10;;;3.65;;
37791;SDS011;29527;55.766;37.570;2023-07-31T04:31:41;6.53;;;3.35;;
37791;SDS011;29527;55.766;37.570;2023-07-31T04:34:06;8.55;;;3.33;;
37791;SDS011;29527;55.766;37.570;2023-07-31T04:36:33;9.00;;;3.47;;
37791;SDS011;29527;55.766;37.570;2023-07-31T04:38:59;11.07;;;3.25;;
37791;SDS011;29527;55.766;37.570;2023-07-31T04:41:24;15.48;;;3.92;;
37791;SDS011;29527;55.766;37.570;2023-07-31T04:43:50;7.82;;;3.20;;
37791;SDS011;29527;55.766;37.570;2023-07-31T04:46:15;8.10;;;3.20;;
37791;SDS011;29527;55.766;37.570;2023-07-31T04:48:41;10.60;;;3.40;;
37791;SDS011;29527;55.766;37.570;2023-07-31T04:51:07;7.68;;;3.20;;
37791;SDS011;29527;55.766;37.570;2023-07-31T04:53:33;9.40;;;3.35;;
37791;SDS011;29527;55.766;37.570;2023-07-31T04:55:58;7.97;;;3.05;;
37791;SDS011;29527;55.766;37.570;2023-07-31T04:58:24;8.90;;;3.40;;
37791;SDS011;29527;55.766;37.570;2023-07-31T05:00:49;6.15;;;3.00;;
37791;SDS011;29527;55.766;37.570;2023-07-31T05:03:15;9.10;;;3.33;;
37791;SDS011;29527;55.766;37.570;2023-07-31T05:05:40;9.07;;;3.33;;
37791;SDS011;29527;55.766;37.570;2023-07-31T05:08:06;7.13;;;3.05;;
37791;SDS011;29527;55.766;37.570;2023-07-31T05:10:31;6.32;;;3.38;;
37791;SDS011;29527;55.766;37.570;2023-07-31T05:12:57;4.50;;;3.03;;
37791;SDS011;29527;55.766;37.570;2023-07-31T05:15:22;6.20;;;3.53;;
37791;SDS011;29527;55.766;37.570;2023-07-31T05:17:48;9.65;;;2.88;;
37791;SDS011;29527;55.766;37.570;2023-07-31T05:20:13;6.47;;;2.97;;
37791;SDS011;29527;55.766;37.570;2023-07-31T05:22:40;6.65;;;4.57;;
37791;SDS011;29527;55.766;37.570;2023-07-31T05:25:05;7.78;;;3.30;;
37791;SDS011;29527;55.766;37.570;2023-07-31T05:27:31;7.05;;;3.65;;
37791;SDS011;29527;55.766;37.570;2023-07-31T05:29:57;8.95;;;3.30;;
37791;SDS011;29527;55.766;37.570;2023-07-31T05:32:23;8.43;;;3.67;;
37791;SDS011;29527;55.766;37.570;2023-07-31T05:34:50;5.90;;;3.22;;
37791;SDS011;29527;55.766;37.570;2023-07-31T05:37:17;5.47;;;3.30;;
37791;SDS011;29527;55.766;37.570;2023-07-31T05:39:43;4.38;;;2.80;;
37791;SDS011;29527;55.766;37.570;2023-07-31T05:42:08;5.88;;;3.30;;
37791;SDS011;29527;55.766;37.570;2023-07-31T05:44:34;8.77;;;2.60;;
37791;SDS011;29527;55.766;37.570;2023-07-31T05:46:59;7.43;;;3.10;;
37791;SDS011;29527;55.766;37.570;2023-07-31T05:49:25;9.32;;;2.85;;
37791;SDS011;29527;55.766;37.570;2023-07-31T05:51:50;4.50;;;2.90;;
37791;SDS011;29527;55.766;37.570;2023-07-31T05:54:16;5.63;;;3.00;;
37791;SDS011;29527;55.766;37.570;2023-07-31T05:56:41;6.45;;;3.47;;
37791;SDS011;29527;55.766;37.570;2023-07-31T05:59:08;5.93;;;3.22;;
37791;SDS011;29527;55.766;37.570;2023-07-31T06:01:35;5.90;;;2.85;;
37791;SDS011;29527;55.766;37.570;2023-07-31T06:04:00;4.88;;;3.10;;
37791;SDS011;29527;55.766;37.570;2023-07-31T06:06:28;8.40;;;3.28;;
37791;SDS011;29527;55.766;37.570;2023-07-31T06:08:54;5.00;;;3.13;;
37791;SDS011;29527;55.766;37.570;2023-07-31T06:11:20;5.93;;;2.33;;
37791;SDS011;29527;55.766;37.570;2023-07-31T06:13:46;9.57;;;2.63;;
37791;SDS011;29527;55.766;37.570;2023-07-31T06:16:13;3.67;;;2.83;;
37791;SDS011;29527;55.766;37.570;2023-07-31T06:18:39;5.93;;;2.83;;
37791;SDS011;29527;55.766;37.570;2023-07-31T06:21:05;4.95;;;2.60;;
37791;SDS011;29527;55.766;37.570;2023-07-31T06:23:30;6.78;;;3.22;;
37791;SDS011;29527;55.766;37.570;2023-07-31T06:25:56;4.65;;;3.08;;
37791;SDS011;29527;55.766;37.570;2023-07-31T06:28:23;6.20;;;2.90;;
37791;SDS011;29527;55.766;37.570;2023-07-31T06:30:53;8.02;;;3.60;;
37791;SDS011;29527;55.766;37.570;2023-07-31T06:33:18;4.15;;;3.38;;
37791;SDS011;29527;55.766;37.570;2023-07-31T06:35:44;6.72;;;3.55;;
37791;SDS011;29527;55.766;37.570;2023-07-31T06:38:10;5.93;;;3.47;;
37791;SDS011;29527;55.766;37.570;2023-07-31T06:40:36;10.30;;;3.70;;
37791;SDS011;29527;55.766;37.570;2023-07-31T06:43:02;4.25;;;3.45;;
37791;SDS011;29527;55.766;37.570;2023-07-31T06:45:33;4.88;;;3.50;;
37791;SDS011;29527;55.766;37.570;2023-07-31T06:48:00;4.95;;;3.17;;
37791;SDS011;29527;55.766;37.570;2023-07-31T06:50:27;3.60;;;3.22;;
37791;SDS011;29527;55.766;37.570;2023-07-31T06:52:53;5.95;;;3.58;;
37791;SDS011;29527;55.766;37.570;2023-07-31T06:55:19;5.50;;;3.60;;
37791;SDS011;29527;55.766;37.570;2023-07-31T06:57:47;8.10;;;3.38;;
37791;SDS011;29527;55.766;37.570;2023-07-31T07:00:16;6.40;;;3.88;;
37791;SDS011;29527;55.766;37.570;2023-07-31T07:02:43;3.53;;;3.20;;
37791;SDS011;29527;55.766;37.570;2023-07-31T07:05:09;4.85;;;3.70;;
37791;SDS011;29527;55.766;37.570;2023-07-31T07:07:35;4.18;;;3.75;;
37791;SDS011;29527;55.766;37.570;2023-07-31T07:10:01;7.05;;;3.72;;
37791;SDS011;29527;55.766;37.570;2023-07-31T07:12:31;4.43;;;3.50;;
37791;SDS011;29527;55.766;37.570;2023-07-31T07:14:57;4.20;;;3.08;;
37791;SDS011;29527;55.766;37.570;2023-07-31T07:17:24;4.22;;;3.35;;
37791;SDS011;29527;55.766;37.570;2023-07-31T07:19:51;3.95;;;3.53;;
37791;SDS011;29527;55.766;37.570;2023-07-31T07:22:17;4.30;;;3.50;;
37791;SDS011;29527;55.766;37.570;2023-07-31T07:24:43;3.95;;;3.65;;
37791;SDS011;29527;55.766;37.570;2023-07-31T07:27:08;4.30;;;4.00;;
37791;SDS011;29527;55.766;37.570;2023-07-31T07:29:34;6.65;;;3.97;;
37791;SDS011;29527;55.766;37.570;2023-07-31T07:32:00;6.50;;;5.00;;
37791;SDS011;29527;55.766;37.570;2023-07-31T07:34:26;5.25;;;4.78;;
37791;SDS011;29527;55.766;37.570;2023-07-31T07:36:52;5.63;;;5.07;;
37791;SDS011;29527;55.766;37.570;2023-07-31T07:39:18;5.18;;;4.72;;
37791;SDS011;29527;55.766;37.570;2023-07-31T07:41:44;5.10;;;4.70;;
37791;SDS011;29527;55.766;37.570;2023-07-31T07:44:09;5.65;;;5.35;;
37791;SDS011;29527;55.766;37.570;2023-07-31T07:46:35;5.60;;;5.20;;
37791;SDS011;29527;55.766;37.570;2023-07-31T07:49:00;5.85;;;5.43;;
37791;SDS011;29527;55.766;37.570;2023-07-31T07:51:26;5.03;;;4.65;;
37791;SDS011;29527;55.766;37.570;2023-07-31T07:53:51;6.10;;;5.35;;
37791;SDS011;29527;55.766;37.570;2023-07-31T07:56:17;5.00;;;4.72;;
37791;SDS011;29527;55.766;37.570;2023-07-31T07:58:43;5.30;;;4.88;;
37791;SDS011;29527;55.766;37.570;2023-07-31T08:01:08;4.95;;;4.55;;
37791;SDS011;29527;55.766;37.570;2023-07-31T08:03:34;6.13;;;5.05;;
37791;SDS011;29527;55.766;37.570;2023-07-31T08:06:00;5.20;;;4.80;;
37791;SDS011;29527;55.766;37.570;2023-07-31T08:08:26;4.50;;;4.18;;
37791;SDS011;29527;55.766;37.570;2023-07-31T08:10:52;5.20;;;4.05;;
37791;SDS011;29527;55.766;37.570;2023-07-31T08:13:18;4.43;;;4.03;;
37791;SDS011;29527;55.766;37.570;2023-07-31T08:15:43;3.83;;;3.42;;
37791;SDS011;29527;55.766;37.570;2023-07-31T08:18:09;5.88;;;3.45;;
37791;SDS011;29527;55.766;37.570;2023-07-31T08:20:36;4.03;;;2.80;;
37791;SDS011;29527;55.766;37.570;2023-07-31T08:23:02;4.72;;;2.42;;
37791;SDS011;29527;55.766;37.570;2023-07-31T08:25:27;3.45;;;1.65;;
37791;SDS011;29527;55.766;37.570;2023-07-31T08:27:53;9.35;;;4.72;;
37791;SDS011;29527;55.766;37.570;2023-07-31T08:30:19;3.05;;;1.67;;
37791;SDS011;29527;55.766;37.570;2023-07-31T08:32:44;2.17;;;1.65;;
37791;SDS011;29527;55.766;37.570;2023-07-31T08:35:10;4.80;;;1.55;;
37791;SDS011;29527;55.766;37.570;2023-07-31T08:37:37;2.10;;;1.60;;
37791;SDS011;29527;55.766;37.570;2023-07-31T08:40:03;5.05;;;1.52;;
37791;SDS011;29527;55.766;37.570;2023-07-31T08:42:31;2.10;;;1.90;;
37791;SDS011;29527;55.766;37.570;2023-07-31T08:44:57;4.60;;;1.90;;
37791;SDS011;29527;55.766;37.570;2023-07-31T08:47:25;3.60;;;1.70;;
37791;SDS011;29527;55.766;37.570;2023-07-31T08:49:51;4.28;;;1.40;;
37791;SDS011;29527;55.766;37.570;2023-07-31T08:52:18;5.65;;;1.60;;
37791;SDS011;29527;55.766;37.570;2023-07-31T08:54:43;4.10;;;1.73;;
37791;SDS011;29527;55.766;37.570;2023-07-31T08:57:09;6.25;;;1.88;;
37791;SDS011;29527;55.766;37.570;2023-07-31T08:59:36;3.97;;;2.00;;
37791;SDS011;29527;55.766;37.570;2023-07-31T09:02:05;3.38;;;1.58;;
37791;SDS011;29527;55.766;37.570;2023-07-31T09:04:32;3.63;;;1.58;;
37791;SDS011;29527;55.766;37.570;2023-07-31T09:07:02;6.03;;;1.70;;
37791;SDS011;29527;55.766;37.570;2023-07-31T09:09:32;1.80;;;1.70;;
37791;SDS011;29527;55.766;37.570;2023-07-31T09:11:58;4.60;;;1.63;;
37791;SDS011;29527;55.766;37.570;2023-07-31T09:14:24;1.73;;;1.50;;
37791;SDS011;29527;55.766;37.570;2023-07-31T09:16:51;1.40;;;1.30;;
37791;SDS011;29527;55.766;37.570;2023-07-31T09:19:24;2.67;;;1.60;;
37791;SDS011;29527;55.766;37.570;2023-07-31T09:21:55;2.45;;;1.80;;
37791;SDS011;29527;55.766;37.570;2023-07-31T09:24:30;4.18;;;1.80;;
37791;SDS011;29527;55.766;37.570;2023-07-31T09:26:57;3.63;;;1.63;;
37791;SDS011;29527;55.766;37.570;2023-07-31T09:29:24;2.03;;;1.60;;
37791;SDS011;29527;55.766;37.570;2023-07-31T09:31:52;3.40;;;1.90;;
37791;SDS011;29527;55.766;37.570;2023-07-31T09:34:18;2.90;;;1.50;;
37791;SDS011;29527;55.766;37.570;2023-07-31T09:36:44;2.20;;;1.50;;
37791;SDS011;29527;55.766;37.570;2023-07-31T09:39:13;2.45;;;1.85;;
37791;SDS011;29527;55.766;37.570;2023-07-31T09:41:46;4.28;;;1.90;;
37791;SDS011;29527;55.766;37.570;2023-07-31T09:44:13;5.25;;;1.80;;
37791;SDS011;29527;55.766;37.570;2023-07-31T09:46:39;5.57;;;1.98;;
37791;SDS011;29527;55.766;37.570;2023-07-31T09:49:05;1.83;;;1.60;;
37791;SDS011;29527;55.766;37.570;2023-07-31T09:51:32;1.70;;;1.60;;
37791;SDS011;29527;55.766;37.570;2023-07-31T09:54:03;4.53;;;2.20;;
37791;SDS011;29527;55.766;37.570;2023-07-31T09:56:29;6.18;;;2.42;;
37791;SDS011;29527;55.766;37.570;2023-07-31T09:58:57;2.38;;;1.90;;
37791;SDS011;29527;55.766;37.570;2023-07-31T10:01:23;2.60;;;2.35;;
37791;SDS011;29527;55.766;37.570;2023-07-31T10:03:48;2.83;;;2.50;;
37791;SDS011;29527;55.766;37.570;2023-07-31T10:06:14;2.90;;;2.17;;
37791;SDS011;29527;55.766;37.570;2023-07-31T10:08:43;3.30;;;1.90;;
37791;SDS011;29527;55.766;37.570;2023-07-31T10:11:13;2.58;;;1.67;;
37791;SDS011;29527;55.766;37.570;2023-07-31T10:13:39;4.68;;;1.70;;
37791;SDS011;29527;55.766;37.570;2023-07-31T10:16:07;3.25;;;1.80;;
37791;SDS011;29527;55.766;37.570;2023-07-31T10:18:33;3.80;;;2.78;;
37791;SDS011;29527;55.766;37.570;2023-07-31T10:21:00;1.70;;;1.60;;
37791;SDS011;29527;55.766;37.570;2023-07-31T10:23:27;4.70;;;1.80;;
37791;SDS011;29527;55.766;37.570;2023-07-31T10:25:53;4.53;;;1.67;;
37791;SDS011;29527;55.766;37.570;2023-07-31T10:28:20;3.42;;;2.05;;
37791;SDS011;29527;55.766;37.570;2023-07-31T10:30:46;1.80;;;1.67;;
37791;SDS011;29527;55.766;37.570;2023-07-31T10:33:11;3.83;;;2.00;;
37791;SDS011;29527;55.766;37.570;2023-07-31T10:35:37;3.88;;;2.13;;
37791;SDS011;29527;55.766;37.570;2023-07-31T10:38:09;2.63;;;1.90;;
37791;SDS011;29527;55.766;37.570;2023-07-31T10:40:39;2.88;;;1.92;;
37791;SDS011;29527;55.766;37.570;2023-07-31T10:43:05;4.10;;;2.00;;
37791;SDS011;29527;55.766;37.570;2023-07-31T10:45:41;4.43;;;2.28;;
37791;SDS011;29527;55.766;37.570;2023-07-31T10:50:58;2.03;;;1.85;;
37791;SDS011;29527;55.766;37.570;2023-07-31T10:53:25;4.28;;;1.85;;
37791;SDS011;29527;55.766;37.570;2023-07-31T10:55:58;4.05;;;2.00;;
37791;SDS011;29527;55.766;37.570;2023-07-31T10:58:25;3.53;;;2.05;;
37791;SDS011;29527;55.766;37.570;2023-07-31T11:00:51;2.67;;;2.17;;
37791;SDS011;29527;55.766;37.570;2023-07-31T11:03:24;3.38;;;2.10;;
37791;SDS011;29527;55.766;37.570;2023-07-31T11:06:06;4.70;;;1.70;;
37791;SDS011;29527;55.766;37.570;2023-07-31T11:08:32;3.97;;;2.00;;
37791;SDS011;29527;55.766;37.570;2023-07-31T11:13:42;5.57;;;1.90;;
37791;SDS011;29527;55.766;37.570;2023-07-31T11:16:10;4.80;;;2.50;;
37791;SDS011;29527;55.766;37.570;2023-07-31T11:18:38;5.00;;;2.28;;
37791;SDS011;29527;55.766;37.570;2023-07-31T11:21:05;2.40;;;1.75;;
37791;SDS011;29527;55.766;37.570;2023-07-31T11:23:31;3.97;;;2.20;;
37791;SDS011;29527;55.766;37.570;2023-07-31T11:26:00;3.97;;;1.70;;
37791;SDS011;29527;55.766;37.570;2023-07-31T11:28:30;2.85;;;1.90;;
37791;SDS011;29527;55.766;37.570;2023-07-31T11:31:00;3.88;;;2.00;;
37791;SDS011;29527;55.766;37.570;2023-07-31T11:33:26;4.45;;;1.80;;
37791;SDS011;29527;55.766;37.570;2023-07-31T11:35:52;4.65;;;2.15;;
37791;SDS011;29527;55.766;37.570;2023-07-31T11:38:24;3.00;;;1.90;;
37791;SDS011;29527;55.766;37.570;2023-07-31T11:40:55;2.95;;;2.13;;
37791;SDS011;29527;55.766;37.570;2023-07-31T11:43:22;3.58;;;2.00;;
37791;SDS011;29527;55.766;37.570;2023-07-31T11:45:50;4.93;;;1.98;;
37791;SDS011;29527;55.766;37.570;2023-07-31T11:48:27;2.95;;;1.80;;
37791;SDS011;29527;55.766;37.570;2023-07-31T11:50:59;2.45;;;1.80;;
37791;SDS011;29527;55.766;37.570;2023-07-31T11:55:55;2.13;;;1.90;;
37791;SDS011;29527;55.766;37.570;2023-07-31T11:58:26;6.78;;;2.13;;
37791;SDS011;29527;55.766;37.570;2023-07-31T12:00:52;3.75;;;2.35;;
37791;SDS011;29527;55.766;37.570;2023-07-31T12:03:18;5.07;;;2.03;;
37791;SDS011;29527;55.766;37.570;2023-07-31T12:05:44;4.82;;;1.95;;
37791;SDS011;29527;55.766;37.570;2023-07-31T12:08:10;4.07;;;1.80;;
37791;SDS011;29527;55.766;37.570;2023-07-31T12:10:37;5.00;;;2.08;;
37791;SDS011;29527;55.766;37.570;2023-07-31T12:15:43;6.07;;;2.30;;
37791;SDS011;29527;55.766;37.570;2023-07-31T12:18:10;2.17;;;1.83;;
37791;SDS011;29527;55.766;37.570;2023-07-31T12:20:44;2.72;;;2.00;;
37791;SDS011;29527;55.766;37.570;2023-07-31T12:23:22;9.52;;;2.08;;
37791;SDS011;29527;55.766;37.570;2023-07-31T12:26:03;6.10;;;2.00;;
37791;SDS011;29527;55.766;37.570;2023-07-31T12:28:43;4.75;;;2.28;;
37791;SDS011;29527;55.766;37.570;2023-07-31T12:31:11;6.60;;;2.10;;
37791;SDS011;29527;55.766;37.570;2023-07-31T12:33:38;4.20;;;2.10;;
37791;SDS011;29527;55.766;37.570;2023-07-31T12:36:15;3.67;;;2.28;;
37791;SDS011;29527;55.766;37.570;2023-07-31T12:38:42;3.90;;;1.90;;
37791;SDS011;29527;55.766;37.570;2023-07-31T12:41:08;9.23;;;2.50;;
37791;SDS011;29527;55.766;37.570;2023-07-31T12:43:35;3.40;;;2.40;;
37791;SDS011;29527;55.766;37.570;2023-07-31T12:46:01;5.68;;;2.53;;
37791;SDS011;29527;55.766;37.570;2023-07-31T12:48:26;7.38;;;2.40;;
37791;SDS011;29527;55.766;37.570;2023-07-31T12:50:52;6.18;;;2.40;;
37791;SDS011;29527;55.766;37.570;2023-07-31T12:53:18;3.40;;;2.25;;
37791;SDS011;29527;55.766;37.570;2023-07-31T12:55:43;5.95;;;2.33;;
37791;SDS011;29527;55.766;37.570;2023-07-31T12:58:09;6.03;;;2.80;;
37791;SDS011;29527;55.766;37.570;2023-07-31T13:00:34;7.53;;;2.42;;
37791;SDS011;29527;55.766;37.570;2023-07-31T13:03:00;5.68;;;2.60;;
37791;SDS011;29527;55.766;37.570;2023-07-31T13:05:26;4.10;;;2.20;;
37791;SDS011;29527;55.766;37.570;2023-07-31T13:07:52;5.82;;;2.60;;
37791;SDS011;29527;55.766;37.570;2023-07-31T13:10:18;10.32;;;2.60;;
37791;SDS011;29527;55.766;37.570;2023-07-31T13:12:44;4.53;;;2.33;;
37791;SDS011;29527;55.766;37.570;2023-07-31T13:15:10;9.35;;;2.90;;
37791;SDS011;29527;55.766;37.570;2023-07-31T13:17:36;8.82;;;2.75;;
37791;SDS011;29527;55.766;37.570;2023-07-31T13:20:01;9.77;;;2.60;;
37791;SDS011;29527;55.766;37.570;2023-07-31T13:22:31;3.17;;;2.10;;
37791;SDS011;29527;55.766;37.570;2023-07-31T13:24:57;4.13;;;2.40;;
37791;SDS011;29527;55.766;37.570;2023-07-31T13:27:23;4.38;;;2.42;;
37791;SDS011;29527;55.766;37.570;2023-07-31T13:29:50;3.42;;;2.13;;
37791;SDS011;29527;55.766;37.570;2023-07-31T13:32:16;6.65;;;2.45;;
37791;SDS011;29527;55.766;37.570;2023-07-31T13:34:43;7.97;;;2.70;;
37791;SDS011;29527;55.766;37.570;2023-07-31T13:37:09;3.20;;;2.38;;
37791;SDS011;29527;55.766;37.570;2023-07-31T13:39:34;4.65;;;2.47;;
37791;SDS011;29527;55.766;37.570;2023-07-31T13:42:01;5.18;;;2.50;;
37791;SDS011;29527;55.766;37.570;2023-07-31T13:44:28;5.85;;;2.85;;
37791;SDS011;29527;55.766;37.570;2023-07-31T13:46:53;8.30;;;2.60;;
37791;SDS011;29527;55.766;37.570;2023-07-31T13:49:19;7.88;;;2.75;;
37791;SDS011;29527;55.766;37.570;2023-07-31T13:51:44;6.53;;;2.45;;
37791;SDS011;29527;55.766;37.570;2023-07-31T13:54:11;4.68;;;2.58;;
37791;SDS011;29527;55.766;37.570;2023-07-31T13:56:37;4.88;;;2.28;;
37791;SDS011;29527;55.766;37.570;2023-07-31T13:59:02;4.55;;;2.40;;
37791;SDS011;29527;55.766;37.570;2023-07-31T14:01:28;4.88;;;2.35;;
37791;SDS011;29527;55.766;37.570;2023-07-31T14:03:53;5.80;;;2.33;;
37791;SDS011;29527;55.766;37.570;2023-07-31T14:06:19;5.18;;;2.80;;
37791;SDS011;29527;55.766;37.570;2023-07-31T14:08:45;10.18;;;2.90;;
37791;SDS011;29527;55.766;37.570;2023-07-31T14:11:10;4.03;;;2.55;;
37791;SDS011;29527;55.766;37.570;2023-07-31T14:13:36;2.80;;;2.30;;
37791;SDS011;29527;55.766;37.570;2023-07-31T14:16:01;9.88;;;2.70;;
37791;SDS011;29527;55.766;37.570;2023-07-31T14:18:27;4.85;;;2.50;;
37791;SDS011;29527;55.766;37.570;2023-07-31T14:20:52;6.47;;;2.88;;
37791;SDS011;29527;55.766;37.570;2023-07-31T14:23:18;10.13;;;2.83;;
37791;SDS011;29527;55.766;37.570;2023-07-31T14:25:45;5.10;;;3.15;;
37791;SDS011;29527;55.766;37.570;2023-07-31T14:28:11;8.63;;;3.08;;
37791;SDS011;29527;55.766;37.570;2023-07-31T14:30:36;7.95;;;2.95;;
37791;SDS011;29527;55.766;37.570;2023-07-31T14:33:02;10.38;;;2.78;;
37791;SDS011;29527;55.766;37.570;2023-07-31T14:35:28;5.68;;;2.45;;
37791;SDS011;29527;55.766;37.570;2023-07-31T14:37:53;10.38;;;3.40;;